Time;durP1;ratioP1;P1;durP2;ratioP2;P2;SDS_P1;SDS_P2;PMS_P1;PMS_P2;Temp;Humidity;BMP_temperature;BMP_pressure;BME280_temperature;BME280_humidity;BME280_pressure;Samples;Min_cycle;Max_cycle;Signal;HPM_P1;HPM_P2
2022/12/28 16:06:38;;;;;;;14.90;7.70;;;6.20;96.20;;;;;;7596223;19;21072;-72
2022/12/28 16:09:15;;;;;;;13.30;7.25;;;6.00;97.70;;;;;;7602827;19;20018;-72
2022/12/28 16:11:47;;;;;;;13.10;7.75;;;6.10;99.50;;;;;;7607658;19;20010;-72
2022/12/28 16:14:26;;;;;;;10.43;5.90;;;6.00;99.90;;;;;;7592675;19;20078;-72
2022/12/28 16:16:58;;;;;;;12.35;6.50;;;6.10;99.90;;;;;;7606474;19;20043;-72
2022/12/28 16:19:30;;;;;;;11.63;5.55;;;6.10;99.90;;;;;;7611728;19;20090;-73
2022/12/28 16:22:02;;;;;;;9.48;5.97;;;6.00;99.90;;;;;;7609593;19;20022;-73
2022/12/28 16:24:35;;;;;;;9.23;6.22;;;6.00;99.90;;;;;;7622050;19;20402;-72
2022/12/28 16:27:08;;;;;;;11.32;6.20;;;6.10;99.90;;;;;;7571202;19;20337;-72
2022/12/28 16:29:40;;;;;;;13.30;6.20;;;6.00;99.90;;;;;;7600015;19;20682;-74
2022/12/28 16:32:13;;;;;;;13.10;7.05;;;5.90;99.90;;;;;;7593898;19;20468;-73
2022/12/28 16:34:45;;;;;;;16.17;8.05;;;6.00;99.90;;;;;;7594773;19;20086;-72
2022/12/28 16:37:17;;;;;;;10.45;7.00;;;6.00;99.90;;;;;;7602343;19;20018;-74
2022/12/28 16:39:49;;;;;;;13.38;6.82;;;5.90;99.90;;;;;;7582147;19;20010;-71
2022/12/28 16:42:22;;;;;;;8.27;5.38;;;5.80;99.90;;;;;;7603819;19;20013;-71
2022/12/28 16:44:54;;;;;;;9.65;5.50;;;5.90;99.90;;;;;;7620383;19;20018;-71
2022/12/28 16:47:27;;;;;;;10.82;5.53;;;5.80;99.90;;;;;;7588641;19;20037;-72
2022/12/28 16:49:59;;;;;;;9.80;6.10;;;5.80;99.90;;;;;;7592171;19;20098;-71
2022/12/28 16:52:31;;;;;;;9.32;6.75;;;5.80;99.90;;;;;;7604585;19;20018;-71
2022/12/28 16:55:04;;;;;;;13.73;9.05;;;5.70;99.90;;;;;;7597569;19;21238;-71
2022/12/28 16:57:36;;;;;;;12.60;9.15;;;5.70;99.90;;;;;;7613808;19;21080;-71
2022/12/28 17:00:09;;;;;;;13.25;8.15;;;5.70;99.90;;;;;;7600851;19;20014;-72
2022/12/28 17:02:41;;;;;;;9.82;5.65;;;5.50;99.90;;;;;;7596762;19;20105;-73
2022/12/28 17:05:14;;;;;;;14.02;7.60;;;5.40;99.90;;;;;;7551815;19;20010;-70
2022/12/28 17:07:47;;;;;;;29.67;14.95;;;5.40;99.90;;;;;;7595084;19;20025;-72
2022/12/28 17:10:19;;;;;;;12.90;6.70;;;5.40;99.90;;;;;;7588904;19;20012;-69
2022/12/28 17:12:51;;;;;;;13.30;7.20;;;5.50;99.90;;;;;;7566958;19;20131;-71
2022/12/28 17:15:24;;;;;;;17.35;8.65;;;5.40;99.90;;;;;;7592889;19;20411;-72
2022/12/28 17:17:56;;;;;;;14.15;7.68;;;5.20;99.90;;;;;;7578144;19;20021;-71
2022/12/28 17:20:28;;;;;;;15.75;7.60;;;5.20;99.90;;;;;;7528305;19;20025;-72
2022/12/28 17:23:00;;;;;;;13.55;7.35;;;5.30;99.90;;;;;;7567295;19;20057;-72
2022/12/28 17:25:36;;;;;;;16.60;8.40;;;5.10;99.90;;;;;;7588308;19;20577;-74
2022/12/28 17:28:08;;;;;;;23.23;11.48;;;5.20;99.90;;;;;;7592855;19;20808;-73
2022/12/28 17:30:40;;;;;;;76.82;31.83;;;5.10;99.90;;;;;;7572978;19;20528;-69
2022/12/28 17:33:14;;;;;;;34.85;15.05;;;5.00;99.90;;;;;;7560870;19;20018;-71
2022/12/28 17:35:46;;;;;;;;;;;5.00;99.90;;;;;;7571095;19;21084;-72
2022/12/28 17:38:18;;;;;;;65.60;24.60;;;5.00;99.90;;;;;;7577110;19;19923;-72
2022/12/28 17:40:50;;;;;;;59.13;23.23;;;4.80;99.90;;;;;;7566843;19;20099;-73
2022/12/28 17:43:22;;;;;;;46.20;17.23;;;4.70;99.90;;;;;;7558414;19;20018;-71
2022/12/28 17:45:56;;;;;;;24.95;10.52;;;4.80;99.90;;;;;;7586427;19;20033;-72
2022/12/28 17:48:29;;;;;;;13.77;7.13;;;4.70;99.90;;;;;;7575141;19;20019;-72
2022/12/28 17:51:05;;;;;;;10.55;6.80;;;4.80;99.90;;;;;;7574384;19;20904;-71
2022/12/28 17:53:42;;;;;;;15.10;10.32;;;4.80;99.90;;;;;;7582316;19;20390;-72
2022/12/28 17:56:15;;;;;;;12.02;6.82;;;4.80;99.90;;;;;;7572336;19;20021;-72
2022/12/28 17:58:48;;;;;;;14.80;9.80;;;4.80;99.90;;;;;;7555719;19;20357;-72
2022/12/28 18:01:20;;;;;;;20.85;10.52;;;4.80;99.90;;;;;;7576549;19;20018;-72
2022/12/28 18:03:53;;;;;;;11.23;6.82;;;4.70;99.90;;;;;;7587655;19;20470;-71
2022/12/28 18:06:25;;;;;;;13.33;8.27;;;4.70;99.90;;;;;;7543713;19;20014;-73
2022/12/28 18:08:57;;;;;;;18.40;9.15;;;4.60;99.90;;;;;;7571974;19;20094;-72
2022/12/28 18:11:29;;;;;;;16.50;8.85;;;4.70;99.90;;;;;;7558626;19;20018;-71
2022/12/28 18:14:02;;;;;;;11.18;6.07;;;4.70;99.90;;;;;;7558860;19;20010;-72
2022/12/28 18:16:33;;;;;;;33.75;11.70;;;4.70;99.90;;;;;;7563412;19;20010;-73
2022/12/28 18:19:06;;;;;;;55.63;18.80;;;4.70;99.90;;;;;;7589722;19;20047;-72
2022/12/28 18:21:40;;;;;;;10.30;6.63;;;4.60;99.90;;;;;;7571707;19;20011;-73
2022/12/28 18:24:14;;;;;;;13.10;7.43;;;4.70;99.90;;;;;;7557491;19;20038;-73
2022/12/28 18:26:46;;;;;;;14.00;8.40;;;4.60;99.90;;;;;;7545678;19;20057;-73
2022/12/28 18:29:18;;;;;;;14.85;7.55;;;4.50;99.90;;;;;;7571417;19;20019;-73
2022/12/28 18:31:51;;;;;;;13.15;7.35;;;4.40;99.90;;;;;;7573803;19;21547;-73
2022/12/28 18:34:23;;;;;;;13.73;7.10;;;4.50;99.90;;;;;;7582217;19;20019;-72
2022/12/28 18:36:55;;;;;;;12.25;6.82;;;4.50;99.90;;;;;;7566548;19;20014;-71
2022/12/28 18:39:27;;;;;;;10.80;6.82;;;4.40;99.90;;;;;;7555398;19;20026;-72
2022/12/28 18:42:00;;;;;;;11.85;7.43;;;4.40;99.90;;;;;;7582207;19;20021;-73
2022/12/28 18:44:32;;;;;;;12.20;7.18;;;4.40;99.90;;;;;;7577049;19;20281;-73
2022/12/28 18:47:04;;;;;;;9.93;6.38;;;4.40;99.90;;;;;;7573774;19;20617;-72
2022/12/28 18:49:37;;;;;;;15.25;8.93;;;4.30;99.90;;;;;;7574919;19;20010;-72
2022/12/28 18:52:16;;;;;;;19.65;8.57;;;4.40;99.90;;;;;;7579462;19;20898;-72
2022/12/28 18:54:48;;;;;;;14.13;7.88;;;4.40;99.90;;;;;;7574816;19;20383;-72
2022/12/28 18:57:20;;;;;;;13.63;7.55;;;4.30;99.90;;;;;;7574709;19;20493;-73
2022/12/28 18:59:52;;;;;;;13.07;7.30;;;4.30;99.90;;;;;;7564674;19;20094;-73
2022/12/28 19:02:25;;;;;;;13.43;6.57;;;4.30;99.90;;;;;;7589191;19;20023;-73
2022/12/28 19:04:57;;;;;;;9.18;5.95;;;4.20;99.90;;;;;;7568422;19;20110;-72
2022/12/28 19:07:29;;;;;;;8.85;5.88;;;4.20;99.90;;;;;;7565507;19;20015;-72
2022/12/28 19:10:11;;;;;;;12.60;6.25;;;4.20;99.90;;;;;;7545248;19;20030;-73
2022/12/28 19:12:44;;;;;;;10.63;6.85;;;4.30;99.90;;;;;;7558829;19;20553;-72
2022/12/28 19:15:17;;;;;;;12.40;6.60;;;4.20;99.90;;;;;;7580278;19;20014;-72
2022/12/28 19:17:49;;;;;;;11.95;6.93;;;4.20;99.90;;;;;;7596455;19;20557;-73
2022/12/28 19:20:22;;;;;;;11.32;6.28;;;4.10;99.90;;;;;;7577271;19;21019;-73
2022/12/28 19:22:54;;;;;;;12.98;6.70;;;4.10;99.90;;;;;;7585635;19;22017;-71
2022/12/28 19:25:26;;;;;;;11.73;5.75;;;4.00;99.90;;;;;;7576273;19;20018;-73
2022/12/28 19:27:58;;;;;;;9.85;5.53;;;4.00;99.90;;;;;;7576649;19;20363;-72
2022/12/28 19:30:33;;;;;;;9.95;5.97;;;4.00;99.90;;;;;;7571513;19;20596;-73
2022/12/28 19:33:05;;;;;;;9.00;5.97;;;3.90;99.90;;;;;;7583047;19;20025;-71
2022/12/28 19:35:37;;;;;;;50.90;17.00;;;3.80;99.90;;;;;;7055365;19;9999652;-72
2022/12/28 19:38:09;;;;;;;12.40;6.82;;;4.00;99.90;;;;;;7574831;19;20019;-71
2022/12/28 19:40:41;;;;;;;26.60;10.48;;;4.00;99.90;;;;;;7549100;19;21965;-72
2022/12/28 19:43:14;;;;;;;11.73;6.55;;;3.90;99.90;;;;;;7554462;19;20018;-73
2022/12/28 19:45:46;;;;;;;11.45;6.70;;;3.90;99.90;;;;;;7568293;19;20041;-72
2022/12/28 19:48:18;;;;;;;13.85;8.00;;;3.90;99.90;;;;;;7565964;19;20006;-73
2022/12/28 19:50:50;;;;;;;22.77;10.32;;;3.90;99.90;;;;;;7559901;19;20029;-71
2022/12/28 19:53:22;;;;;;;17.30;8.57;;;3.90;99.90;;;;;;7558897;19;20021;-73
2022/12/28 19:56:05;;;;;;;17.02;8.43;;;3.90;99.90;;;;;;7538102;19;20015;-73
2022/12/28 19:58:38;;;;;;;14.67;7.53;;;3.90;99.90;;;;;;7546454;19;20010;-71
2022/12/28 20:01:13;;;;;;;16.00;6.93;;;3.90;99.90;;;;;;7558496;19;21590;-72
2022/12/28 20:03:47;;;;;;;15.23;8.20;;;3.90;99.90;;;;;;7565840;19;20026;-71
2022/12/28 20:06:27;;;;;;;16.60;7.78;;;3.90;99.90;;;;;;7563547;19;22258;-72
2022/12/28 20:09:00;;;;;;;12.07;6.53;;;3.80;99.90;;;;;;7562767;19;20021;-71
2022/12/28 20:11:32;;;;;;;13.60;6.85;;;3.90;99.90;;;;;;7571639;19;20035;-71
2022/12/28 20:14:05;;;;;;;11.73;6.30;;;4.00;99.90;;;;;;7560182;19;20022;-73
2022/12/28 20:16:38;;;;;;;11.45;5.90;;;3.90;99.90;;;;;;7564874;19;20394;-74
2022/12/28 20:19:11;;;;;;;10.50;5.95;;;3.90;99.90;;;;;;7558722;19;20019;-71
2022/12/28 20:21:43;;;;;;;11.43;6.45;;;3.90;99.90;;;;;;7548444;19;20019;-72
2022/12/28 20:24:16;;;;;;;11.50;6.80;;;4.00;99.90;;;;;;7567128;19;20547;-71
2022/12/28 20:26:49;;;;;;;10.55;6.22;;;4.00;99.90;;;;;;7583256;19;20023;-72
2022/12/28 20:29:24;;;;;;;10.30;6.60;;;3.90;99.90;;;;;;7567610;19;20018;-71
2022/12/28 20:31:56;;;;;;;12.35;6.63;;;3.90;99.90;;;;;;7571448;19;20056;-74
2022/12/28 20:34:29;;;;;;;10.75;6.30;;;3.90;99.90;;;;;;7575537;19;23339;-73
2022/12/28 20:37:01;;;;;;;8.23;5.70;;;4.00;99.90;;;;;;7582571;19;20026;-72
2022/12/28 20:39:33;;;;;;;9.38;5.47;;;4.00;99.90;;;;;;7570916;19;20025;-71
2022/12/28 20:44:57;;;;;;;9.57;5.70;;;4.00;99.90;;;;;;7597961;19;20018;-72
2022/12/28 20:47:30;;;;;;;9.70;5.63;;;4.00;99.90;;;;;;7583247;19;20033;-72
2022/12/28 20:50:02;;;;;;;8.00;4.95;;;3.90;99.90;;;;;;7590526;19;20018;-72
2022/12/28 20:52:39;;;;;;;10.13;5.38;;;4.00;99.90;;;;;;7585719;19;20544;-73
2022/12/28 20:55:11;;;;;;;9.68;5.50;;;3.90;99.90;;;;;;7573291;19;20025;-73
2022/12/28 20:57:44;;;;;;;8.20;4.82;;;3.90;99.90;;;;;;7591331;19;20388;-74
2022/12/28 21:00:16;;;;;;;10.68;5.88;;;4.00;99.90;;;;;;7590780;19;20018;-75
2022/12/28 21:02:48;;;;;;;10.68;6.00;;;3.90;99.90;;;;;;7569618;19;20017;-75
2022/12/28 21:05:20;;;;;;;9.50;5.50;;;3.90;99.90;;;;;;7565667;19;20029;-74
2022/12/28 21:07:52;;;;;;;11.77;5.00;;;3.90;99.90;;;;;;7572738;19;20022;-74
2022/12/28 21:10:24;;;;;;;9.48;4.53;;;3.90;99.90;;;;;;7574681;19;20024;-75
2022/12/28 21:12:56;;;;;;;10.00;5.28;;;3.90;99.90;;;;;;7584518;19;20014;-73
2022/12/28 21:15:28;;;;;;;9.07;4.50;;;4.00;99.90;;;;;;7578430;19;21369;-74
2022/12/28 21:18:01;;;;;;;8.65;4.78;;;4.00;99.90;;;;;;7590422;19;20350;-74
2022/12/28 21:20:33;;;;;;;8.52;4.72;;;3.90;99.90;;;;;;7583269;19;20015;-74
2022/12/28 21:23:10;;;;;;;6.07;3.95;;;4.00;99.90;;;;;;7573732;19;20014;-75
2022/12/28 21:25:42;;;;;;;8.07;4.40;;;4.00;99.90;;;;;;7588392;19;20025;-74
2022/12/28 21:28:14;;;;;;;7.90;4.47;;;4.00;99.90;;;;;;7583853;19;20025;-73
2022/12/28 21:30:52;;;;;;;8.63;4.20;;;3.90;99.90;;;;;;7582510;19;20027;-74
2022/12/28 21:33:24;;;;;;;7.78;4.57;;;3.90;99.90;;;;;;7572202;19;20040;-74
2022/12/28 21:35:58;;;;;;;6.38;4.22;;;3.90;99.90;;;;;;7577255;19;20022;-73
2022/12/28 21:38:31;;;;;;;6.30;4.05;;;3.80;99.90;;;;;;7596828;19;20702;-74
2022/12/28 21:41:06;;;;;;;7.72;4.30;;;3.80;99.90;;;;;;7580376;19;20010;-73
2022/12/28 21:43:38;;;;;;;6.82;4.35;;;3.80;99.90;;;;;;7580651;19;20020;-74
2022/12/28 21:46:13;;;;;;;6.88;4.25;;;3.90;99.90;;;;;;7577839;19;20093;-74
2022/12/28 21:48:45;;;;;;;8.25;5.05;;;3.80;99.90;;;;;;7578450;19;20049;-73
2022/12/28 21:51:37;;;;;;;7.10;4.03;;;3.90;99.90;;;;;;7590636;19;20666;-73
2022/12/28 21:54:13;;;;;;;7.50;3.80;;;3.90;99.90;;;;;;7588439;19;20026;-73
2022/12/28 21:56:49;;;;;;;7.88;4.30;;;3.90;99.90;;;;;;7588687;19;20612;-73
2022/12/28 21:59:24;;;;;;;8.70;4.10;;;3.90;99.90;;;;;;7599686;19;20054;-74
2022/12/28 22:12:33;;;;;;;;;;;3.90;99.90;;;;;;7594886;19;20021;-74
2022/12/28 22:13:34;;;;;;;7.90;4.05;;;3.90;99.90;;;;;;7578812;19;20014;-74
2022/12/28 22:16:06;;;;;;;10.20;4.00;;;3.80;99.90;;;;;;7577755;19;20022;-73
2022/12/28 22:18:38;;;;;;;6.32;3.90;;;3.80;99.90;;;;;;7583672;19;20019;-74
2022/12/28 22:21:30;;;;;;;6.90;4.60;;;3.80;99.90;;;;;;7582136;19;20022;-73
2022/12/28 22:24:03;;;;;;;6.05;3.60;;;3.80;99.90;;;;;;7592176;19;20019;-74
2022/12/28 22:26:35;;;;;;;5.90;3.58;;;3.80;99.90;;;;;;7562299;19;20125;-72
2022/12/28 22:29:07;;;;;;;8.15;3.60;;;3.70;99.90;;;;;;7589926;19;20033;-73
2022/12/28 22:31:39;;;;;;;6.25;3.42;;;3.70;99.90;;;;;;7579777;19;20014;-73
2022/12/28 22:34:11;;;;;;;6.70;3.45;;;3.70;99.90;;;;;;7582534;19;20052;-73
2022/12/28 22:36:43;;;;;;;7.78;4.20;;;3.60;99.90;;;;;;7593523;19;20015;-72
2022/12/28 22:39:16;;;;;;;5.25;3.60;;;3.70;99.90;;;;;;7584396;19;20007;-74
2022/12/28 22:41:48;;;;;;;7.15;3.63;;;3.60;99.90;;;;;;7554453;19;20037;-73
2022/12/28 22:44:20;;;;;;;7.07;3.72;;;3.70;99.90;;;;;;7551373;19;20022;-74
2022/12/28 22:46:53;;;;;;;5.32;3.45;;;3.60;99.90;;;;;;7585142;19;20029;-74
2022/12/28 22:49:25;;;;;;;8.75;4.22;;;3.70;99.90;;;;;;7591533;19;20014;-73
2022/12/28 22:51:57;;;;;;;7.53;3.67;;;3.60;99.90;;;;;;7607102;19;21598;-73
2022/12/28 22:54:29;;;;;;;9.35;4.38;;;3.60;99.90;;;;;;7604783;19;20011;-75
2022/12/28 22:57:03;;;;;;;7.82;4.30;;;3.60;99.90;;;;;;7576242;19;20101;-73
2022/12/28 22:59:35;;;;;;;9.35;4.32;;;3.70;99.90;;;;;;7596641;19;20014;-72
2022/12/28 23:02:07;;;;;;;9.32;4.72;;;3.60;99.90;;;;;;7547434;19;20849;-74
2022/12/28 23:04:39;;;;;;;9.32;5.28;;;3.60;99.90;;;;;;7583040;19;20047;-72
2022/12/28 23:07:11;;;;;;;7.32;4.32;;;3.50;99.90;;;;;;7559398;19;20011;-72
2022/12/28 23:09:43;;;;;;;7.82;4.60;;;3.60;99.90;;;;;;7553822;19;20018;-72
2022/12/28 23:12:15;;;;;;;7.53;3.83;;;3.60;99.90;;;;;;7568870;19;22391;-73
2022/12/28 23:17:38;;;;;;;6.07;2.97;;;3.60;99.90;;;;;;7581808;19;20795;-73
2022/12/28 23:28:54;;;;;;;7.28;3.22;;;3.70;99.90;;;;;;7582993;19;20026;-72
2022/12/28 23:31:26;;;;;;;20.50;7.60;;;3.60;99.90;;;;;;7595620;19;20021;-73
2022/12/28 23:33:58;;;;;;;18.98;7.68;;;3.70;99.90;;;;;;7563191;19;20645;-73
2022/12/28 23:36:33;;;;;;;18.05;7.53;;;3.70;99.90;;;;;;7577544;19;20081;-73
2022/12/28 23:39:05;;;;;;;18.00;6.72;;;3.60;99.90;;;;;;7584771;19;20025;-72
2022/12/28 23:41:46;;;;;;;7.38;3.20;;;3.70;99.90;;;;;;7602555;19;20023;-72
2022/12/28 23:44:22;;;;;;;5.07;2.88;;;3.80;99.90;;;;;;7601119;19;20010;-74
2022/12/28 23:46:54;;;;;;;6.63;3.40;;;3.80;99.90;;;;;;7594078;19;20305;-73
2022/12/28 23:49:30;;;;;;;9.85;4.47;;;3.80;99.90;;;;;;7601452;19;20018;-72
2022/12/28 23:52:03;;;;;;;7.35;4.18;;;3.90;99.90;;;;;;7603116;19;20380;-73
2022/12/28 23:54:35;;;;;;;8.85;4.40;;;3.80;99.90;;;;;;7600262;19;20018;-72
2022/12/28 23:57:07;;;;;;;5.28;2.97;;;3.80;99.90;;;;;;7600916;19;20029;-73
2022/12/28 23:59:39;;;;;;;3.83;2.20;;;3.80;99.90;;;;;;7600823;19;20410;-73
